• Join FlightAware (Why Join?)
  • Login
  • US Flag 
02:38PM EDT


 

Airport Tracker/Info


-or-


 

Live Flight TrackerFlight Track Log ✈ CTL15 ✈ 17-Jul-2013 ✈ KMGY - KBKL

Flight Track Log - Related Links

Times and Time Zones

All times are in EDT time to prevent confusion due to time zone crossing. See the CTL15 flight status page for this flight to view local times or setup timezone preferences in your user account.

Time Position Orientation Groundspeed Altitude Reporting Facility
EDT Latitude Longitude Course Direction KTS MPH feet Rate Location/Type
07:45PM 39.6369 -84.1600 43° Northeast 135 155 2,600  Level Indianapolis Center
07:46PM 39.6661 -84.1242 43° Northeast 133 153 3,500 840 Climbing Indianapolis Center
07:47PM 39.6931 -84.0881 46° Northeast 130 150 4,400 780 Climbing Indianapolis Center
07:48PM 39.7197 -84.0547 44° Northeast 134 154 5,100 660 Climbing Indianapolis Center
07:49PM 39.7347 -84.0356 44° Northeast 154 177 5,500 660 Climbing Indianapolis Center
07:50PM 39.7617 -84.0028 43° Northeast 133 153 6,200 660 Climbing Indianapolis Center
07:51PM 39.7861 -83.9653 50° Northeast 134 154 6,900 300 Climbing Indianapolis Center
07:52PM 39.8144 -83.9256 47° Northeast 141 162 6,900 60 Level Indianapolis Center
07:53PM 39.8489 -83.8819 44° Northeast 157 181 7,100  Climbing Indianapolis Center
07:54PM 39.8828 -83.8381 45° Northeast 167 192 7,000 -120 Descending Indianapolis Center
07:55PM 39.9167 -83.7922 46° Northeast 171 197 6,900  Descending Indianapolis Center
07:56PM 39.9575 -83.7433 43° Northeast 170 196 7,000  Climbing Indianapolis Center
07:57PM 39.9914 -83.6989 45° Northeast 170 196 7,000  Level Indianapolis Center
07:58PM 40.0244 -83.6531 47° Northeast 170 196 7,000  Level Indianapolis Center
07:59PM 40.0633 -83.5981 47° Northeast 170 196 7,000  Level Indianapolis Center
08:00PM 40.0931 -83.5594 45° Northeast 171 197 7,000 -60 Level Indianapolis Center
08:01PM 40.1242 -83.5167 46° Northeast 171 197 6,900 -60 Descending Indianapolis Center
08:02PM 40.1553 -83.4692 49° Northeast 170 196 6,900  Level Indianapolis Center
08:03PM 40.1906 -83.4278 42° Northeast 169 194 6,900  Level Indianapolis Center
08:04PM 40.2211 -83.3811 49° Northeast 168 193 6,900  Level Indianapolis Center
08:05PM 40.2594 -83.3353 42° Northeast 169 194 6,900 -60 Level Indianapolis Center
08:06PM 40.2933 -83.2914 45° Northeast 170 196 6,800  Descending Indianapolis Center
08:07PM 40.3317 -83.2453 43° Northeast 171 197 7,000 60 Climbing Indianapolis Center
08:09PM 40.3681 -83.1986 44° Northeast 172 198 7,000 -120 Level Indianapolis Center
08:10PM 40.3983 -83.1500 51° Northeast 171 197 6,800 -60 Descending Indianapolis Center
08:11PM 40.4322 -83.1075 44° Northeast 169 194 6,900  Climbing Indianapolis Center
08:12PM 40.4656 -83.0678 42° Northeast 168 193 6,900  Level Indianapolis Center
08:13PM 40.4994 -83.0228 45° Northeast 170 196 6,900  Level Indianapolis Center
08:14PM 40.5353 -82.9775 44° Northeast 169 194 6,900 -60 Level Indianapolis Center
08:15PM 40.5647 -82.9283 52° Northeast 169 194 6,800  Descending Indianapolis Center
08:16PM 40.6003 -82.8875 41° Northeast 168 193 6,900  Climbing Indianapolis Center
08:17PM 40.6311 -82.8431 48° Northeast 165 190 6,900  Level Indianapolis Center
08:18PM 40.6714 -82.7939 43° Northeast 166 191 6,900  Level Indianapolis Center
08:19PM 40.7025 -82.7467 49° Northeast 168 193 6,900 -60 Level Indianapolis Center
08:20PM 40.7358 -82.7033 45° Northeast 168 193 6,800 -120 Descending Indianapolis Center